sensor_id;sensor_type;location;lat;lon;timestamp;pressure;altitude;pressure_sealevel;temperature;humidity
10712;BME280;5407;51.234;6.804;2023-07-09T00:01:49;101262.69;;;28.46;42.94
10712;BME280;5407;51.234;6.804;2023-07-09T00:04:17;101259.34;;;28.51;42.83
10712;BME280;5407;51.234;6.804;2023-07-09T00:06:44;101261.31;;;28.29;43.07
10712;BME280;5407;51.234;6.804;2023-07-09T00:09:14;101252.13;;;28.07;43.66
10712;BME280;5407;51.234;6.804;2023-07-09T00:11:41;101253.75;;;28.17;43.37
10712;BME280;5407;51.234;6.804;2023-07-09T00:14:09;101254.53;;;28.05;43.75
10712;BME280;5407;51.234;6.804;2023-07-09T00:16:37;101258.53;;;28.04;43.82
10712;BME280;5407;51.234;6.804;2023-07-09T00:19:04;101250.44;;;27.97;43.78
10712;BME280;5407;51.234;6.804;2023-07-09T00:21:31;101256.78;;;27.98;43.88
10712;BME280;5407;51.234;6.804;2023-07-09T00:24:00;101249.88;;;28.02;43.68
10712;BME280;5407;51.234;6.804;2023-07-09T00:26:31;101249.13;;;28.02;43.55
10712;BME280;5407;51.234;6.804;2023-07-09T00:28:59;101247.25;;;27.99;43.54
10712;BME280;5407;51.234;6.804;2023-07-09T00:31:29;101249.44;;;28.16;43.27
10712;BME280;5407;51.234;6.804;2023-07-09T00:33:56;101240.13;;;28.10;43.12
10712;BME280;5407;51.234;6.804;2023-07-09T00:36:27;101241.09;;;28.16;43.25
10712;BME280;5407;51.234;6.804;2023-07-09T00:38:57;101242.53;;;28.33;43.14
10712;BME280;5407;51.234;6.804;2023-07-09T00:41:34;101246.75;;;28.38;42.81
10712;BME280;5407;51.234;6.804;2023-07-09T00:44:22;101243.19;;;28.37;42.53
10712;BME280;5407;51.234;6.804;2023-07-09T00:47:17;101239.19;;;28.38;42.73
10712;BME280;5407;51.234;6.804;2023-07-09T00:49:45;101236.31;;;28.29;42.70
10712;BME280;5407;51.234;6.804;2023-07-09T00:52:25;101239.97;;;28.26;42.72
10712;BME280;5407;51.234;6.804;2023-07-09T00:54:59;101238.53;;;28.34;42.48
10712;BME280;5407;51.234;6.804;2023-07-09T00:57:28;101236.06;;;28.36;42.48
10712;BME280;5407;51.234;6.804;2023-07-09T00:59:58;101233.31;;;28.36;42.68
10712;BME280;5407;51.234;6.804;2023-07-09T01:02:27;101244.22;;;28.52;42.17
10712;BME280;5407;51.234;6.804;2023-07-09T01:04:57;101241.19;;;28.38;42.40
10712;BME280;5407;51.234;6.804;2023-07-09T01:07:26;101234.09;;;28.37;42.15
10712;BME280;5407;51.234;6.804;2023-07-09T01:09:54;101233.94;;;28.28;42.28
10712;BME280;5407;51.234;6.804;2023-07-09T01:12:22;101235.31;;;28.36;42.43
10712;BME280;5407;51.234;6.804;2023-07-09T01:14:53;101240.06;;;28.35;42.16
10712;BME280;5407;51.234;6.804;2023-07-09T01:17:26;101251.19;;;28.35;42.21
10712;BME280;5407;51.234;6.804;2023-07-09T01:19:54;101249.94;;;28.36;42.38
10712;BME280;5407;51.234;6.804;2023-07-09T01:22:23;101243.50;;;28.39;42.00
10712;BME280;5407;51.234;6.804;2023-07-09T01:24:53;101247.31;;;28.33;42.41
10712;BME280;5407;51.234;6.804;2023-07-09T01:27:23;101248.06;;;28.33;42.42
10712;BME280;5407;51.234;6.804;2023-07-09T01:29:52;101252.78;;;28.11;42.75
10712;BME280;5407;51.234;6.804;2023-07-09T01:32:19;101255.31;;;28.18;42.50
10712;BME280;5407;51.234;6.804;2023-07-09T01:34:49;101258.84;;;28.19;42.64
10712;BME280;5407;51.234;6.804;2023-07-09T01:37:22;101250.84;;;28.21;42.48
10712;BME280;5407;51.234;6.804;2023-07-09T01:39:51;101251.75;;;28.18;42.46
10712;BME280;5407;51.234;6.804;2023-07-09T01:42:21;101254.09;;;28.19;42.78
10712;BME280;5407;51.234;6.804;2023-07-09T01:44:48;101256.28;;;28.24;42.37
10712;BME280;5407;51.234;6.804;2023-07-09T01:47:15;101258.66;;;28.13;42.80
10712;BME280;5407;51.234;6.804;2023-07-09T01:49:42;101249.44;;;28.04;42.97
10712;BME280;5407;51.234;6.804;2023-07-09T01:52:13;101249.22;;;27.98;43.09
10712;BME280;5407;51.234;6.804;2023-07-09T01:54:42;101250.91;;;27.96;43.30
10712;BME280;5407;51.234;6.804;2023-07-09T01:57:19;101248.56;;;27.94;43.42
10712;BME280;5407;51.234;6.804;2023-07-09T01:59:49;101250.00;;;27.99;43.31
10712;BME280;5407;51.234;6.804;2023-07-09T02:02:16;101249.34;;;27.95;43.52
10712;BME280;5407;51.234;6.804;2023-07-09T02:04:49;101249.03;;;27.80;43.75
10712;BME280;5407;51.234;6.804;2023-07-09T02:07:17;101244.13;;;27.84;43.62
10712;BME280;5407;51.234;6.804;2023-07-09T02:09:45;101247.47;;;27.79;43.93
10712;BME280;5407;51.234;6.804;2023-07-09T02:12:13;101251.88;;;27.64;44.18
10712;BME280;5407;51.234;6.804;2023-07-09T02:14:42;101246.44;;;27.61;44.22
10712;BME280;5407;51.234;6.804;2023-07-09T02:17:10;101252.31;;;27.50;44.69
10712;BME280;5407;51.234;6.804;2023-07-09T02:19:37;101246.97;;;27.43;44.76
10712;BME280;5407;51.234;6.804;2023-07-09T02:22:05;101248.28;;;27.26;45.21
10712;BME280;5407;51.234;6.804;2023-07-09T02:24:32;101252.28;;;27.25;45.46
10712;BME280;5407;51.234;6.804;2023-07-09T02:27:00;101251.13;;;27.10;45.90
10712;BME280;5407;51.234;6.804;2023-07-09T02:29:28;101258.81;;;27.19;45.72
10712;BME280;5407;51.234;6.804;2023-07-09T02:31:58;101252.50;;;27.18;45.89
10712;BME280;5407;51.234;6.804;2023-07-09T02:34:26;101257.16;;;27.21;45.81
10712;BME280;5407;51.234;6.804;2023-07-09T02:36:55;101257.91;;;27.22;45.81
10712;BME280;5407;51.234;6.804;2023-07-09T02:39:22;101254.06;;;27.19;46.20
10712;BME280;5407;51.234;6.804;2023-07-09T02:41:50;101254.06;;;27.19;46.05
10712;BME280;5407;51.234;6.804;2023-07-09T02:44:18;101265.16;;;27.03;46.21
10712;BME280;5407;51.234;6.804;2023-07-09T02:46:45;101256.84;;;27.03;46.34
10712;BME280;5407;51.234;6.804;2023-07-09T02:49:14;101255.16;;;26.93;46.76
10712;BME280;5407;51.234;6.804;2023-07-09T02:51:41;101258.06;;;27.02;46.55
10712;BME280;5407;51.234;6.804;2023-07-09T02:54:08;101260.94;;;26.99;46.60
10712;BME280;5407;51.234;6.804;2023-07-09T02:56:35;101262.69;;;26.93;46.75
10712;BME280;5407;51.234;6.804;2023-07-09T02:59:02;101261.44;;;26.82;47.09
10712;BME280;5407;51.234;6.804;2023-07-09T03:01:30;101256.38;;;26.92;46.93
10712;BME280;5407;51.234;6.804;2023-07-09T03:04:00;101254.94;;;27.00;46.90
10712;BME280;5407;51.234;6.804;2023-07-09T03:06:29;101268.78;;;27.00;46.75
10712;BME280;5407;51.234;6.804;2023-07-09T03:08:58;101265.75;;;26.83;47.03
10712;BME280;5407;51.234;6.804;2023-07-09T03:11:27;101263.53;;;26.78;47.56
10712;BME280;5407;51.234;6.804;2023-07-09T03:13:55;101264.88;;;26.86;47.53
10712;BME280;5407;51.234;6.804;2023-07-09T03:16:21;101268.94;;;26.81;47.51
10712;BME280;5407;51.234;6.804;2023-07-09T03:18:48;101269.59;;;26.73;47.92
10712;BME280;5407;51.234;6.804;2023-07-09T03:21:15;101269.47;;;26.76;47.69
10712;BME280;5407;51.234;6.804;2023-07-09T03:23:44;101270.69;;;26.75;48.01
10712;BME280;5407;51.234;6.804;2023-07-09T03:26:12;101277.16;;;26.85;47.88
10712;BME280;5407;51.234;6.804;2023-07-09T03:28:38;101273.78;;;26.93;47.64
10712;BME280;5407;51.234;6.804;2023-07-09T03:31:05;101286.09;;;27.04;47.21
10712;BME280;5407;51.234;6.804;2023-07-09T03:33:32;101284.53;;;27.19;47.06
10712;BME280;5407;51.234;6.804;2023-07-09T03:35:59;101285.19;;;27.36;46.75
10712;BME280;5407;51.234;6.804;2023-07-09T03:38:26;101283.09;;;27.27;46.72
10712;BME280;5407;51.234;6.804;2023-07-09T03:40:55;101287.19;;;27.23;46.76
10712;BME280;5407;51.234;6.804;2023-07-09T03:43:22;101286.78;;;27.08;47.08
10712;BME280;5407;51.234;6.804;2023-07-09T03:45:50;101278.06;;;27.10;47.13
10712;BME280;5407;51.234;6.804;2023-07-09T03:48:19;101287.59;;;27.09;46.99
10712;BME280;5407;51.234;6.804;2023-07-09T03:50:47;101292.03;;;27.19;46.88
10712;BME280;5407;51.234;6.804;2023-07-09T03:53:16;101294.75;;;27.06;47.25
10712;BME280;5407;51.234;6.804;2023-07-09T03:55:44;101293.59;;;26.91;47.64
10712;BME280;5407;51.234;6.804;2023-07-09T03:58:13;101295.22;;;26.89;47.62
10712;BME280;5407;51.234;6.804;2023-07-09T04:00:40;101295.47;;;26.66;47.91
10712;BME280;5407;51.234;6.804;2023-07-09T04:03:07;101292.88;;;26.59;48.27
10712;BME280;5407;51.234;6.804;2023-07-09T04:05:35;101291.59;;;26.48;48.81
10712;BME280;5407;51.234;6.804;2023-07-09T04:08:03;101289.50;;;26.52;48.85
10712;BME280;5407;51.234;6.804;2023-07-09T04:10:30;101293.75;;;26.56;48.71
10712;BME280;5407;51.234;6.804;2023-07-09T04:12:57;101296.69;;;26.65;48.52
10712;BME280;5407;51.234;6.804;2023-07-09T04:15:25;101294.00;;;26.62;48.49
10712;BME280;5407;51.234;6.804;2023-07-09T04:17:52;101298.22;;;26.66;48.43
10712;BME280;5407;51.234;6.804;2023-07-09T04:20:20;101301.00;;;26.66;48.40
10712;BME280;5407;51.234;6.804;2023-07-09T04:22:47;101298.75;;;26.61;48.57
10712;BME280;5407;51.234;6.804;2023-07-09T04:25:14;101294.78;;;26.62;48.55
10712;BME280;5407;51.234;6.804;2023-07-09T04:27:41;101289.59;;;26.64;48.46
10712;BME280;5407;51.234;6.804;2023-07-09T04:30:10;101296.75;;;26.62;48.83
10712;BME280;5407;51.234;6.804;2023-07-09T04:32:39;101301.63;;;26.58;48.70
10712;BME280;5407;51.234;6.804;2023-07-09T04:35:07;101303.16;;;26.59;48.92
10712;BME280;5407;51.234;6.804;2023-07-09T04:37:34;101304.56;;;26.51;48.81
10712;BME280;5407;51.234;6.804;2023-07-09T04:40:01;101304.09;;;26.36;49.24
10712;BME280;5407;51.234;6.804;2023-07-09T04:42:28;101306.81;;;26.40;48.98
10712;BME280;5407;51.234;6.804;2023-07-09T04:44:55;101300.66;;;26.32;49.47
10712;BME280;5407;51.234;6.804;2023-07-09T04:47:22;101307.91;;;26.26;49.31
10712;BME280;5407;51.234;6.804;2023-07-09T04:49:50;101306.63;;;26.15;49.93
10712;BME280;5407;51.234;6.804;2023-07-09T04:52:17;101304.75;;;26.28;49.88
10712;BME280;5407;51.234;6.804;2023-07-09T04:54:44;101309.66;;;26.36;49.48
10712;BME280;5407;51.234;6.804;2023-07-09T04:57:11;101307.66;;;26.37;49.60
10712;BME280;5407;51.234;6.804;2023-07-09T04:59:38;101304.22;;;26.33;49.81
10712;BME280;5407;51.234;6.804;2023-07-09T05:02:07;101307.81;;;26.46;49.37
10712;BME280;5407;51.234;6.804;2023-07-09T05:04:34;101301.13;;;26.47;49.49
10712;BME280;5407;51.234;6.804;2023-07-09T05:07:02;101312.00;;;26.54;48.92
10712;BME280;5407;51.234;6.804;2023-07-09T05:09:29;101306.72;;;26.59;48.81
10712;BME280;5407;51.234;6.804;2023-07-09T05:11:56;101311.22;;;26.53;48.91
10712;BME280;5407;51.234;6.804;2023-07-09T05:14:23;101309.03;;;26.45;49.23
10712;BME280;5407;51.234;6.804;2023-07-09T05:16:50;101301.13;;;26.47;49.02
10712;BME280;5407;51.234;6.804;2023-07-09T05:19:16;101308.88;;;26.52;49.12
10712;BME280;5407;51.234;6.804;2023-07-09T05:21:43;101307.50;;;26.60;49.15
10712;BME280;5407;51.234;6.804;2023-07-09T05:24:11;101306.38;;;26.57;49.12
10712;BME280;5407;51.234;6.804;2023-07-09T05:26:38;101303.09;;;26.62;48.97
10712;BME280;5407;51.234;6.804;2023-07-09T05:29:05;101307.94;;;26.58;48.99
10712;BME280;5407;51.234;6.804;2023-07-09T05:31:33;101307.06;;;26.61;49.07
10712;BME280;5407;51.234;6.804;2023-07-09T05:34:02;101304.03;;;26.56;48.89
10712;BME280;5407;51.234;6.804;2023-07-09T05:36:29;101297.63;;;26.59;48.94
10712;BME280;5407;51.234;6.804;2023-07-09T05:38:56;101295.13;;;26.64;49.23
10712;BME280;5407;51.234;6.804;2023-07-09T05:41:24;101299.00;;;26.67;48.98
10712;BME280;5407;51.234;6.804;2023-07-09T05:43:52;101306.50;;;26.82;48.62
10712;BME280;5407;51.234;6.804;2023-07-09T05:46:21;101300.72;;;26.77;48.87
10712;BME280;5407;51.234;6.804;2023-07-09T05:48:48;101302.69;;;26.92;48.34
10712;BME280;5407;51.234;6.804;2023-07-09T05:51:15;101309.13;;;27.01;48.33
10712;BME280;5407;51.234;6.804;2023-07-09T05:53:42;101304.25;;;27.05;48.03
10712;BME280;5407;51.234;6.804;2023-07-09T05:56:09;101308.78;;;27.15;48.00
10712;BME280;5407;51.234;6.804;2023-07-09T05:58:38;101304.78;;;27.16;47.90
10712;BME280;5407;51.234;6.804;2023-07-09T06:01:05;101307.22;;;27.14;47.99
10712;BME280;5407;51.234;6.804;2023-07-09T06:03:32;101307.38;;;27.07;48.00
10712;BME280;5407;51.234;6.804;2023-07-09T06:05:59;101304.59;;;27.23;47.71
10712;BME280;5407;51.234;6.804;2023-07-09T06:08:26;101300.59;;;27.24;47.87
10712;BME280;5407;51.234;6.804;2023-07-09T06:10:54;101304.25;;;27.34;47.61
10712;BME280;5407;51.234;6.804;2023-07-09T06:13:21;101304.25;;;27.34;47.70
10712;BME280;5407;51.234;6.804;2023-07-09T06:15:51;101305.84;;;27.47;47.52
10712;BME280;5407;51.234;6.804;2023-07-09T06:18:19;101304.63;;;27.48;47.44
10712;BME280;5407;51.234;6.804;2023-07-09T06:20:47;101298.53;;;27.53;46.94
10712;BME280;5407;51.234;6.804;2023-07-09T06:23:15;101304.97;;;27.50;47.40
10712;BME280;5407;51.234;6.804;2023-07-09T06:25:42;101312.00;;;27.67;47.35
10712;BME280;5407;51.234;6.804;2023-07-09T06:28:09;101301.47;;;27.75;47.12
10712;BME280;5407;51.234;6.804;2023-07-09T06:30:36;101310.78;;;27.81;46.84
10712;BME280;5407;51.234;6.804;2023-07-09T06:33:04;101300.03;;;27.83;46.77
10712;BME280;5407;51.234;6.804;2023-07-09T06:35:31;101309.94;;;27.84;46.65
10712;BME280;5407;51.234;6.804;2023-07-09T06:37:58;101305.16;;;27.84;47.07
10712;BME280;5407;51.234;6.804;2023-07-09T06:40:25;101308.81;;;27.94;46.78
10712;BME280;5407;51.234;6.804;2023-07-09T06:42:52;101311.56;;;28.06;46.50
10712;BME280;5407;51.234;6.804;2023-07-09T06:45:24;101314.69;;;28.08;46.47
10712;BME280;5407;51.234;6.804;2023-07-09T06:47:51;101313.00;;;28.23;46.28
10712;BME280;5407;51.234;6.804;2023-07-09T06:50:19;101318.88;;;28.25;46.60
10712;BME280;5407;51.234;6.804;2023-07-09T06:52:46;101318.44;;;28.39;46.52
10712;BME280;5407;51.234;6.804;2023-07-09T06:55:13;101314.44;;;28.52;46.01
10712;BME280;5407;51.234;6.804;2023-07-09T06:57:40;101326.44;;;28.37;46.33
10712;BME280;5407;51.234;6.804;2023-07-09T07:00:07;101319.31;;;28.61;46.16
10712;BME280;5407;51.234;6.804;2023-07-09T07:02:34;101316.78;;;28.54;45.88
10712;BME280;5407;51.234;6.804;2023-07-09T07:05:01;101321.00;;;28.80;45.46
10712;BME280;5407;51.234;6.804;2023-07-09T07:07:30;101316.56;;;28.82;45.46
10712;BME280;5407;51.234;6.804;2023-07-09T07:09:57;101317.44;;;28.92;45.06
10712;BME280;5407;51.234;6.804;2023-07-09T07:12:25;101321.84;;;29.02;44.82
10712;BME280;5407;51.234;6.804;2023-07-09T07:14:52;101311.63;;;29.20;44.72
10712;BME280;5407;51.234;6.804;2023-07-09T07:17:20;101310.06;;;29.19;45.07
10712;BME280;5407;51.234;6.804;2023-07-09T07:19:47;101310.75;;;29.23;45.35
10712;BME280;5407;51.234;6.804;2023-07-09T07:22:14;101312.84;;;29.41;44.95
10712;BME280;5407;51.234;6.804;2023-07-09T07:24:43;101314.22;;;29.36;44.21
10712;BME280;5407;51.234;6.804;2023-07-09T07:27:10;101306.78;;;29.55;44.19
10712;BME280;5407;51.234;6.804;2023-07-09T07:29:37;101301.88;;;29.59;44.37
10712;BME280;5407;51.234;6.804;2023-07-09T07:32:04;101294.16;;;29.63;44.05
10712;BME280;5407;51.234;6.804;2023-07-09T07:34:31;101298.00;;;29.65;44.21
10712;BME280;5407;51.234;6.804;2023-07-09T07:36:58;101298.50;;;29.64;44.06
10712;BME280;5407;51.234;6.804;2023-07-09T07:39:25;101291.38;;;29.63;43.85
10712;BME280;5407;51.234;6.804;2023-07-09T07:41:54;101297.59;;;29.76;44.37
10712;BME280;5407;51.234;6.804;2023-07-09T07:44:21;101297.00;;;29.81;43.94
10712;BME280;5407;51.234;6.804;2023-07-09T07:46:48;101302.16;;;29.91;43.40
10712;BME280;5407;51.234;6.804;2023-07-09T07:49:15;101296.78;;;29.97;43.42
10712;BME280;5407;51.234;6.804;2023-07-09T07:51:42;101288.75;;;29.99;43.16
10712;BME280;5407;51.234;6.804;2023-07-09T07:54:09;101304.28;;;30.08;43.64
10712;BME280;5407;51.234;6.804;2023-07-09T07:56:36;101297.78;;;30.11;43.79
10712;BME280;5407;51.234;6.804;2023-07-09T07:59:05;101298.13;;;30.22;43.42
10712;BME280;5407;51.234;6.804;2023-07-09T08:01:31;101298.44;;;30.33;43.33
10712;BME280;5407;51.234;6.804;2023-07-09T08:04:01;101291.69;;;30.43;43.22
10712;BME280;5407;51.234;6.804;2023-07-09T08:06:28;101290.78;;;30.55;42.95
10712;BME280;5407;51.234;6.804;2023-07-09T08:08:56;101301.59;;;30.53;42.90
10712;BME280;5407;51.234;6.804;2023-07-09T08:11:24;101297.91;;;30.56;42.96
10712;BME280;5407;51.234;6.804;2023-07-09T08:13:53;101296.22;;;30.68;42.83
10712;BME280;5407;51.234;6.804;2023-07-09T08:16:22;101293.88;;;30.75;42.58
10712;BME280;5407;51.234;6.804;2023-07-09T08:18:49;101295.75;;;30.96;42.41
10712;BME280;5407;51.234;6.804;2023-07-09T08:21:17;101295.13;;;30.92;42.78
10712;BME280;5407;51.234;6.804;2023-07-09T08:23:45;101294.03;;;30.99;42.10
10712;BME280;5407;51.234;6.804;2023-07-09T08:26:12;101284.88;;;31.25;41.64
10712;BME280;5407;51.234;6.804;2023-07-09T08:28:39;101285.66;;;31.26;42.08
10712;BME280;5407;51.234;6.804;2023-07-09T08:31:05;101285.78;;;31.31;41.59
10712;BME280;5407;51.234;6.804;2023-07-09T08:33:34;101267.09;;;31.23;40.97
10712;BME280;5407;51.234;6.804;2023-07-09T08:36:02;101278.06;;;31.35;40.58
10712;BME280;5407;51.234;6.804;2023-07-09T08:38:29;101278.66;;;31.39;40.54
10712;BME280;5407;51.234;6.804;2023-07-09T08:40:58;101274.34;;;31.38;40.57
10712;BME280;5407;51.234;6.804;2023-07-09T08:43:47;101273.41;;;31.41;40.08
10712;BME280;5407;51.234;6.804;2023-07-09T08:46:21;101267.38;;;31.25;40.57
10712;BME280;5407;51.234;6.804;2023-07-09T08:48:51;101267.78;;;31.50;39.88
10712;BME280;5407;51.234;6.804;2023-07-09T08:51:25;101269.13;;;31.55;40.17
10712;BME280;5407;51.234;6.804;2023-07-09T08:53:57;101272.66;;;31.73;40.82
10712;BME280;5407;51.234;6.804;2023-07-09T08:56:25;101272.31;;;31.89;40.04
10712;BME280;5407;51.234;6.804;2023-07-09T08:58:55;101271.66;;;31.94;39.28
10712;BME280;5407;51.234;6.804;2023-07-09T09:01:25;101277.53;;;31.96;39.46
10712;BME280;5407;51.234;6.804;2023-07-09T09:03:58;101274.44;;;31.94;38.95
10712;BME280;5407;51.234;6.804;2023-07-09T09:06:29;101275.03;;;31.98;39.23
10712;BME280;5407;51.234;6.804;2023-07-09T09:09:04;101272.16;;;32.16;39.50
10712;BME280;5407;51.234;6.804;2023-07-09T09:11:42;101260.75;;;32.28;39.17
10712;BME280;5407;51.234;6.804;2023-07-09T09:14:21;101272.06;;;32.57;38.17
10712;BME280;5407;51.234;6.804;2023-07-09T09:16:51;101258.38;;;32.59;37.56
10712;BME280;5407;51.234;6.804;2023-07-09T09:19:23;101266.69;;;32.68;38.17
10712;BME280;5407;51.234;6.804;2023-07-09T09:21:57;101268.44;;;32.80;37.46
10712;BME280;5407;51.234;6.804;2023-07-09T09:24:29;101256.16;;;32.63;36.60
10712;BME280;5407;51.234;6.804;2023-07-09T09:26:58;101252.19;;;32.79;35.78
10712;BME280;5407;51.234;6.804;2023-07-09T09:29:26;101258.78;;;32.67;35.94
10712;BME280;5407;51.234;6.804;2023-07-09T09:31:55;101260.38;;;32.97;35.62
10712;BME280;5407;51.234;6.804;2023-07-09T09:34:27;101251.22;;;33.11;35.64
10712;BME280;5407;51.234;6.804;2023-07-09T09:36:56;101251.31;;;33.02;36.16
10712;BME280;5407;51.234;6.804;2023-07-09T09:39:25;101244.97;;;32.87;36.25
10712;BME280;5407;51.234;6.804;2023-07-09T09:41:53;101247.47;;;33.14;34.73
10712;BME280;5407;51.234;6.804;2023-07-09T09:44:24;101252.00;;;33.40;34.05
10712;BME280;5407;51.234;6.804;2023-07-09T09:46:52;101251.94;;;33.49;33.79
10712;BME280;5407;51.234;6.804;2023-07-09T09:49:19;101248.63;;;33.50;34.37
10712;BME280;5407;51.234;6.804;2023-07-09T09:51:48;101250.97;;;33.52;33.87
10712;BME280;5407;51.234;6.804;2023-07-09T09:54:18;101244.56;;;33.80;33.99
10712;BME280;5407;51.234;6.804;2023-07-09T09:56:48;101243.59;;;34.03;32.69
10712;BME280;5407;51.234;6.804;2023-07-09T09:59:18;101253.81;;;34.06;33.04
10712;BME280;5407;51.234;6.804;2023-07-09T10:01:46;101244.16;;;34.07;33.32
10712;BME280;5407;51.234;6.804;2023-07-09T10:04:17;101246.94;;;34.22;32.92
10712;BME280;5407;51.234;6.804;2023-07-09T10:06:49;101246.19;;;34.21;33.23
10712;BME280;5407;51.234;6.804;2023-07-09T10:09:26;101247.28;;;34.29;32.02
10712;BME280;5407;51.234;6.804;2023-07-09T10:11:58;101233.66;;;34.37;32.22
10712;BME280;5407;51.234;6.804;2023-07-09T10:14:36;101235.47;;;34.05;32.68
10712;BME280;5407;51.234;6.804;2023-07-09T10:17:15;101233.22;;;34.09;32.54
10712;BME280;5407;51.234;6.804;2023-07-09T10:19:49;101230.63;;;34.40;32.74
10712;BME280;5407;51.234;6.804;2023-07-09T10:22:40;101230.88;;;34.62;31.65
10712;BME280;5407;51.234;6.804;2023-07-09T10:25:35;101222.88;;;34.75;31.52
10712;BME280;5407;51.234;6.804;2023-07-09T10:28:26;101230.03;;;34.76;31.51
10712;BME280;5407;51.234;6.804;2023-07-09T10:31:00;101228.81;;;35.08;31.40
10712;BME280;5407;51.234;6.804;2023-07-09T10:33:38;101223.88;;;35.23;30.84
10712;BME280;5407;51.234;6.804;2023-07-09T10:36:17;101220.69;;;35.41;31.03
10712;BME280;5407;51.234;6.804;2023-07-09T10:38:54;101223.34;;;35.50;30.43
10712;BME280;5407;51.234;6.804;2023-07-09T10:41:23;101225.97;;;36.01;29.75
10712;BME280;5407;51.234;6.804;2023-07-09T10:43:56;101225.25;;;36.06;30.12
10712;BME280;5407;51.234;6.804;2023-07-09T10:46:26;101231.41;;;36.10;28.80
10712;BME280;5407;51.234;6.804;2023-07-09T10:48:55;101221.91;;;36.02;28.43
10712;BME280;5407;51.234;6.804;2023-07-09T10:51:28;101226.91;;;35.87;28.62
10712;BME280;5407;51.234;6.804;2023-07-09T10:54:02;101226.38;;;35.83;28.12
10712;BME280;5407;51.234;6.804;2023-07-09T10:56:33;101227.38;;;35.80;27.81
10712;BME280;5407;51.234;6.804;2023-07-09T10:59:04;101225.63;;;35.88;27.83
10712;BME280;5407;51.234;6.804;2023-07-09T11:01:38;101220.81;;;35.88;28.53
10712;BME280;5407;51.234;6.804;2023-07-09T11:04:11;101227.97;;;35.95;28.39
10712;BME280;5407;51.234;6.804;2023-07-09T11:06:42;101217.91;;;36.14;28.66
10712;BME280;5407;51.234;6.804;2023-07-09T11:09:20;101211.81;;;36.32;28.45
10712;BME280;5407;51.234;6.804;2023-07-09T11:11:51;101206.88;;;36.79;28.37
10712;BME280;5407;51.234;6.804;2023-07-09T11:14:25;101205.38;;;36.89;27.83
10712;BME280;5407;51.234;6.804;2023-07-09T11:16:56;101192.31;;;36.81;27.77
10712;BME280;5407;51.234;6.804;2023-07-09T11:19:24;101191.00;;;36.87;27.07
10712;BME280;5407;51.234;6.804;2023-07-09T11:21:59;101188.00;;;37.24;27.25
10712;BME280;5407;51.234;6.804;2023-07-09T11:24:36;101185.97;;;37.02;27.19
10712;BME280;5407;51.234;6.804;2023-07-09T11:27:23;101180.59;;;37.48;27.04
10712;BME280;5407;51.234;6.804;2023-07-09T11:29:57;101177.72;;;36.82;27.52
10712;BME280;5407;51.234;6.804;2023-07-09T11:32:25;101177.78;;;37.04;27.42
10712;BME280;5407;51.234;6.804;2023-07-09T11:34:53;101173.91;;;37.35;27.81
10712;BME280;5407;51.234;6.804;2023-07-09T11:37:24;101172.81;;;37.76;26.42
10712;BME280;5407;51.234;6.804;2023-07-09T11:39:52;101160.53;;;37.74;26.14
10712;BME280;5407;51.234;6.804;2023-07-09T11:42:31;101169.91;;;38.60;25.41
10712;BME280;5407;51.234;6.804;2023-07-09T11:45:03;101164.53;;;38.57;25.83
10712;BME280;5407;51.234;6.804;2023-07-09T11:47:36;101156.69;;;38.85;25.28
10712;BME280;5407;51.234;6.804;2023-07-09T11:50:07;101170.34;;;38.24;25.81
10712;BME280;5407;51.234;6.804;2023-07-09T11:52:43;101164.13;;;39.41;24.42
10712;BME280;5407;51.234;6.804;2023-07-09T11:55:26;101166.06;;;38.98;25.57
10712;BME280;5407;51.234;6.804;2023-07-09T11:57:55;101173.06;;;40.17;24.46
10712;BME280;5407;51.234;6.804;2023-07-09T12:00:23;101179.69;;;40.01;24.01
10712;BME280;5407;51.234;6.804;2023-07-09T12:02:50;101178.09;;;39.34;24.89
10712;BME280;5407;51.234;6.804;2023-07-09T12:05:22;101170.06;;;37.38;27.69
10712;BME280;5407;51.234;6.804;2023-07-09T12:07:53;101170.31;;;38.35;27.00
10712;BME280;5407;51.234;6.804;2023-07-09T12:10:23;101181.75;;;38.94;26.06
10712;BME280;5407;51.234;6.804;2023-07-09T12:12:54;101189.19;;;38.91;25.63
10712;BME280;5407;51.234;6.804;2023-07-09T12:15:23;101177.19;;;39.15;25.31
10712;BME280;5407;51.234;6.804;2023-07-09T12:17:56;101187.88;;;38.98;25.47
10712;BME280;5407;51.234;6.804;2023-07-09T12:20:24;101172.31;;;39.21;25.53
10712;BME280;5407;51.234;6.804;2023-07-09T12:22:51;101181.13;;;39.36;25.29
10712;BME280;5407;51.234;6.804;2023-07-09T12:25:23;101162.38;;;40.47;23.83
10712;BME280;5407;51.234;6.804;2023-07-09T12:27:51;101153.34;;;41.42;23.27
10712;BME280;5407;51.234;6.804;2023-07-09T12:30:18;101146.72;;;41.66;23.23
10712;BME280;5407;51.234;6.804;2023-07-09T12:32:46;101151.25;;;42.21;21.93
10712;BME280;5407;51.234;6.804;2023-07-09T12:35:15;101146.72;;;41.66;22.87
10712;BME280;5407;51.234;6.804;2023-07-09T12:37:44;101135.84;;;40.81;23.28
10712;BME280;5407;51.234;6.804;2023-07-09T12:40:13;101132.09;;;40.60;23.58
10712;BME280;5407;51.234;6.804;2023-07-09T12:42:43;101127.38;;;40.50;23.72
10712;BME280;5407;51.234;6.804;2023-07-09T12:45:15;101132.97;;;39.94;24.36
10712;BME280;5407;51.234;6.804;2023-07-09T12:47:43;101133.63;;;38.40;25.91
10712;BME280;5407;51.234;6.804;2023-07-09T12:50:18;101127.38;;;38.07;26.46
10712;BME280;5407;51.234;6.804;2023-07-09T12:52:45;101118.84;;;37.61;27.61
10712;BME280;5407;51.234;6.804;2023-07-09T12:55:20;101114.31;;;36.70;28.11
10712;BME280;5407;51.234;6.804;2023-07-09T12:57:48;101110.22;;;36.71;27.63
10712;BME280;5407;51.234;6.804;2023-07-09T13:00:18;101105.63;;;36.68;28.20
10712;BME280;5407;51.234;6.804;2023-07-09T13:02:45;101101.50;;;36.47;28.96
10712;BME280;5407;51.234;6.804;2023-07-09T13:05:21;101104.81;;;35.71;30.36
10712;BME280;5407;51.234;6.804;2023-07-09T13:07:50;101106.69;;;35.49;29.97
10712;BME280;5407;51.234;6.804;2023-07-09T13:10:19;101099.19;;;35.66;29.38
10712;BME280;5407;51.234;6.804;2023-07-09T13:12:51;101074.19;;;35.68;29.33